Time;durP1;ratioP1;P1;durP2;ratioP2;P2;SDS_P1;SDS_P2;PMS_P1;PMS_P2;Temp;Humidity;BMP_temperature;BMP_pressure;BME280_temperature;BME280_humidity;BME280_pressure;Samples;Min_cycle;Max_cycle;Signal;HPM_P1;HPM_P2
2021/10/09 00:00:55;;;;;;;36.70;17.50;;;8.90;97.20;;;;;;5069986;28;20438;-75
2021/10/09 00:03:21;;;;;;;33.47;18.17;;;8.90;97.30;;;;;;5068165;28;21078;-75
2021/10/09 00:05:47;;;;;;;37.47;17.47;;;8.90;97.30;;;;;;5068937;28;20187;-75
2021/10/09 00:08:17;;;;;;;34.17;16.30;;;8.80;97.40;;;;;;5059108;28;20195;-76
2021/10/09 00:10:44;;;;;;;32.30;16.77;;;8.80;97.50;;;;;;5068314;28;20211;-75
2021/10/09 00:13:10;;;;;;;39.93;16.50;;;8.80;97.50;;;;;;5068615;28;20487;-75
2021/10/09 00:15:36;;;;;;;34.03;17.17;;;8.80;97.50;;;;;;5070345;28;20466;-76
2021/10/09 00:18:03;;;;;;;34.27;18.33;;;8.90;97.40;;;;;;5071582;28;20521;-75
2021/10/09 00:20:29;;;;;;;36.57;18.00;;;8.80;97.40;;;;;;5057030;28;20450;-75
2021/10/09 00:22:55;;;;;;;33.50;17.23;;;8.80;97.40;;;;;;5062371;28;20427;-75
2021/10/09 00:25:21;;;;;;;32.97;15.43;;;8.80;97.50;;;;;;5067961;28;20479;-76
2021/10/09 00:27:47;;;;;;;40.00;16.40;;;8.80;97.60;;;;;;5067111;28;20422;-75
2021/10/09 00:30:13;;;;;;;37.57;16.30;;;8.80;97.50;;;;;;5068915;28;20449;-75
2021/10/09 00:32:39;;;;;;;37.17;16.87;;;8.70;97.50;;;;;;5072419;28;20801;-75
2021/10/09 00:35:06;;;;;;;34.77;18.00;;;8.70;97.60;;;;;;5069772;28;20490;-75
2021/10/09 00:37:31;;;;;;;34.60;17.80;;;8.70;97.60;;;;;;5061895;28;20436;-75
2021/10/09 00:39:57;;;;;;;38.60;19.13;;;8.70;97.60;;;;;;5072604;28;20458;-76
2021/10/09 00:42:24;;;;;;;37.10;17.57;;;8.70;97.50;;;;;;5071093;28;20253;-77
2021/10/09 00:44:50;;;;;;;31.67;15.80;;;8.70;97.50;;;;;;5071062;28;20452;-75
2021/10/09 00:47:16;;;;;;;36.77;19.50;;;8.60;97.50;;;;;;5071325;28;20430;-76
2021/10/09 00:49:43;;;;;;;35.27;18.57;;;8.60;97.60;;;;;;5072250;28;20960;-75
2021/10/09 00:52:10;;;;;;;43.30;18.47;;;8.60;97.60;;;;;;5069259;28;20524;-76
2021/10/09 00:54:41;;;;;;;36.40;18.20;;;8.60;97.70;;;;;;5078082;28;20498;-75
2021/10/09 00:57:08;;;;;;;33.70;16.77;;;8.60;97.70;;;;;;5084190;28;20456;-75
2021/10/09 00:59:37;;;;;;;31.93;17.60;;;8.60;97.60;;;;;;5068838;28;20553;-74
2021/10/09 01:02:03;;;;;;;38.90;18.30;;;8.60;97.60;;;;;;5064158;28;20449;-76
2021/10/09 01:04:34;;;;;;;42.63;20.70;;;8.60;97.60;;;;;;5066033;28;20928;-76
2021/10/09 01:07:04;;;;;;;37.60;17.93;;;8.50;97.60;;;;;;5070572;28;20422;-75
2021/10/09 01:09:31;;;;;;;37.20;18.10;;;8.50;97.60;;;;;;5072238;28;20453;-76
2021/10/09 01:11:56;;;;;;;48.30;20.23;;;8.50;97.70;;;;;;5070745;28;20804;-75
2021/10/09 01:14:22;;;;;;;35.70;17.23;;;8.50;97.60;;;;;;5071662;28;20426;-76
2021/10/09 01:16:48;;;;;;;37.43;17.50;;;8.50;97.60;;;;;;5065965;28;20195;-76
2021/10/09 01:19:14;;;;;;;33.23;17.93;;;8.40;97.60;;;;;;5066634;28;20231;-75
2021/10/09 01:21:45;;;;;;;37.20;19.87;;;8.40;97.70;;;;;;5062976;28;20192;-76
2021/10/09 01:24:12;;;;;;;39.40;18.90;;;8.40;97.70;;;;;;5071351;28;20457;-76
2021/10/09 01:26:38;;;;;;;41.67;19.53;;;8.40;97.70;;;;;;5070976;28;20426;-75
2021/10/09 01:29:07;;;;;;;35.30;17.17;;;8.40;97.70;;;;;;5070998;28;20457;-75
2021/10/09 01:31:33;;;;;;;38.33;18.70;;;8.30;97.70;;;;;;5063922;28;20457;-76
2021/10/09 01:33:59;;;;;;;31.50;16.50;;;8.30;97.80;;;;;;5070675;28;20465;-76
2021/10/09 01:36:32;;;;;;;37.20;18.27;;;8.30;97.80;;;;;;5063657;28;20469;-75
2021/10/09 01:38:59;;;;;;;39.03;19.20;;;8.30;97.80;;;;;;5067901;28;20528;-74
2021/10/09 01:41:25;;;;;;;37.10;19.17;;;8.30;97.80;;;;;;5062850;28;20507;-75
2021/10/09 01:43:51;;;;;;;35.40;17.53;;;8.20;97.80;;;;;;5071617;28;20509;-73
2021/10/09 01:46:17;;;;;;;36.87;17.23;;;8.20;97.80;;;;;;5073998;28;20461;-75
2021/10/09 01:48:43;;;;;;;44.10;19.10;;;8.20;97.90;;;;;;5075121;28;20954;-76
2021/10/09 01:51:10;;;;;;;33.47;17.27;;;8.20;97.80;;;;;;5071338;28;20689;-76
2021/10/09 01:53:38;;;;;;;36.20;17.20;;;8.20;97.80;;;;;;5069925;28;20188;-77
2021/10/09 01:56:05;;;;;;;33.93;17.80;;;8.20;97.70;;;;;;5068435;28;20468;-76
2021/10/09 01:58:31;;;;;;;32.83;16.57;;;8.10;97.70;;;;;;5068990;28;20505;-77
2021/10/09 02:00:57;;;;;;;38.20;17.37;;;8.10;97.80;;;;;;5076880;28;20482;-76
2021/10/09 02:03:22;;;;;;;34.30;17.97;;;8.10;97.80;;;;;;5069902;28;20433;-77
2021/10/09 02:05:49;;;;;;;35.73;17.00;;;8.10;97.80;;;;;;5072844;28;20283;-76
2021/10/09 02:08:15;;;;;;;33.90;17.03;;;8.10;97.80;;;;;;5070402;28;20190;-76
2021/10/09 02:13:21;;;;;;;40.20;19.10;;;8.10;97.70;;;;;;5073681;28;21183;-76
2021/10/09 02:26:50;;;;;;;37.00;17.30;;;7.90;97.80;;;;;;5073503;28;20424;-77
2021/10/09 02:29:16;;;;;;;35.47;16.70;;;7.90;97.80;;;;;;5072349;28;20450;-76
2021/10/09 02:31:42;;;;;;;33.80;17.43;;;7.90;97.90;;;;;;5072365;28;20899;-76
2021/10/09 02:34:08;;;;;;;36.73;18.03;;;7.90;97.80;;;;;;5075190;28;20196;-75
2021/10/09 02:36:33;;;;;;;34.50;17.50;;;7.90;97.80;;;;;;5071977;28;20478;-75
2021/10/09 02:38:59;;;;;;;38.17;17.73;;;7.80;97.90;;;;;;5074539;28;20268;-75
2021/10/09 02:41:25;;;;;;;33.87;18.60;;;7.80;97.90;;;;;;5073860;28;20627;-76
2021/10/09 02:43:51;;;;;;;35.10;18.27;;;7.80;97.90;;;;;;5068451;28;20921;-75
2021/10/09 02:46:16;;;;;;;38.87;17.83;;;7.80;97.90;;;;;;5073167;28;20255;-74
2021/10/09 02:48:42;;;;;;;36.23;16.60;;;7.80;97.90;;;;;;5074941;28;20199;-74
2021/10/09 02:51:08;;;;;;;30.63;16.50;;;7.80;97.90;;;;;;5071726;28;20208;-75
2021/10/09 02:53:34;;;;;;;30.80;16.87;;;7.80;97.80;;;;;;5072981;28;20191;-76
2021/10/09 02:55:59;;;;;;;31.53;15.60;;;7.80;97.80;;;;;;5071953;28;20219;-75
2021/10/09 02:58:25;;;;;;;33.33;17.03;;;7.80;97.80;;;;;;5058055;28;20180;-74
2021/10/09 03:00:52;;;;;;;36.67;19.80;;;7.80;97.60;;;;;;5073258;28;20572;-76
2021/10/09 03:03:18;;;;;;;34.53;18.07;;;7.80;97.60;;;;;;5068957;28;20191;-76
2021/10/09 03:05:43;;;;;;;35.47;17.77;;;7.70;97.60;;;;;;5068860;28;20426;-76
2021/10/09 03:08:12;;;;;;;36.23;16.70;;;7.70;97.60;;;;;;5073349;28;20182;-76
2021/10/09 03:10:38;;;;;;;47.43;22.80;;;7.70;97.60;;;;;;5060547;28;20223;-76
2021/10/09 03:13:04;;;;;;;35.00;18.77;;;7.60;97.60;;;;;;5060015;28;20426;-74
2021/10/09 03:15:30;;;;;;;33.33;17.80;;;7.50;97.60;;;;;;5069858;28;20520;-76
2021/10/09 03:17:55;;;;;;;38.37;18.30;;;7.60;97.80;;;;;;5072104;28;20179;-75
2021/10/09 03:20:21;;;;;;;36.43;18.37;;;7.60;97.80;;;;;;5072865;28;20238;-76
2021/10/09 03:22:47;;;;;;;38.37;18.93;;;7.60;97.80;;;;;;5066787;28;20177;-75
2021/10/09 03:25:14;;;;;;;35.93;18.43;;;7.60;97.80;;;;;;5054449;28;20422;-76
2021/10/09 03:27:40;;;;;;;34.10;16.40;;;7.60;97.70;;;;;;5073414;28;20422;-75
2021/10/09 03:30:07;;;;;;;27.77;16.17;;;7.60;97.70;;;;;;5072938;28;20464;-77
2021/10/09 03:32:33;;;;;;;36.17;17.53;;;7.60;97.60;;;;;;5059174;28;20467;-76
2021/10/09 03:34:59;;;;;;;39.20;19.33;;;7.50;97.60;;;;;;5071705;28;20462;-75
2021/10/09 03:37:25;;;;;;;31.63;16.80;;;7.50;97.80;;;;;;5058168;28;20415;-76
2021/10/09 03:39:53;;;;;;;32.33;17.13;;;7.50;97.90;;;;;;5069004;28;20199;-74
2021/10/09 03:42:27;;;;;;;39.20;18.57;;;7.50;98.00;;;;;;5072585;28;20445;-76
2021/10/09 03:45:05;;;;;;;35.80;17.30;;;7.50;98.00;;;;;;5068515;28;20423;-77
2021/10/09 03:52:53;;;;;;;29.40;16.30;;;7.50;97.90;;;;;;5082095;28;20917;-76
2021/10/09 03:55:19;;;;;;;37.73;17.30;;;7.50;97.90;;;;;;5070985;28;20466;-76
2021/10/09 03:57:45;;;;;;;29.30;14.80;;;7.50;97.80;;;;;;5060145;28;20188;-75
2021/10/09 04:00:14;;;;;;;31.80;16.10;;;7.40;97.80;;;;;;5072342;28;20803;-75
2021/10/09 04:02:40;;;;;;;38.13;17.17;;;7.50;97.80;;;;;;5071307;28;20426;-76
2021/10/09 04:05:07;;;;;;;30.87;14.90;;;7.40;97.80;;;;;;5074556;28;20426;-76
2021/10/09 04:07:33;;;;;;;32.40;15.27;;;7.50;97.90;;;;;;5080400;28;21100;-75
2021/10/09 04:09:58;;;;;;;33.57;15.07;;;7.40;97.90;;;;;;5090050;28;20449;-75
2021/10/09 04:12:24;;;;;;;31.43;15.50;;;7.40;97.80;;;;;;5080264;28;20430;-75
2021/10/09 04:14:50;;;;;;;29.40;15.70;;;7.40;97.80;;;;;;5070136;28;20698;-77
2021/10/09 04:17:16;;;;;;;31.00;16.47;;;7.40;97.70;;;;;;5068853;28;20912;-75
2021/10/09 04:19:42;;;;;;;30.50;15.90;;;7.40;97.70;;;;;;5071280;28;20287;-75
2021/10/09 04:22:07;;;;;;;35.37;15.73;;;7.30;97.70;;;;;;5071546;28;20415;-75
2021/10/09 04:24:33;;;;;;;34.37;16.67;;;7.30;97.80;;;;;;5070762;28;20450;-76
2021/10/09 04:26:59;;;;;;;34.27;16.47;;;7.30;97.80;;;;;;5070360;28;20184;-75
2021/10/09 04:29:25;;;;;;;31.97;15.57;;;7.20;97.90;;;;;;5063469;28;20192;-76
2021/10/09 04:31:52;;;;;;;33.80;16.10;;;7.20;97.90;;;;;;5071546;28;20421;-76
2021/10/09 04:34:18;;;;;;;33.27;16.30;;;7.30;98.00;;;;;;5071550;28;20410;-76
2021/10/09 04:36:43;;;;;;;25.93;14.30;;;7.30;98.00;;;;;;5068689;28;20470;-76
2021/10/09 04:39:10;;;;;;;28.53;15.00;;;7.30;97.90;;;;;;5062689;28;20451;-76
2021/10/09 04:41:36;;;;;;;29.30;15.17;;;7.30;97.90;;;;;;5071688;28;20192;-75
2021/10/09 04:44:03;;;;;;;34.53;15.60;;;7.30;97.90;;;;;;5063380;28;20418;-76
2021/10/09 04:46:28;;;;;;;31.23;15.37;;;7.30;97.90;;;;;;5070203;28;20262;-76
2021/10/09 04:48:54;;;;;;;31.20;14.87;;;7.20;97.90;;;;;;5066137;28;20426;-76
2021/10/09 04:51:20;;;;;;;27.47;14.13;;;7.20;97.80;;;;;;5067770;28;20188;-75
2021/10/09 04:53:46;;;;;;;29.93;15.57;;;7.20;97.90;;;;;;5065213;28;20419;-74
2021/10/09 04:56:11;;;;;;;28.23;15.67;;;7.20;97.90;;;;;;5065319;28;20591;-77
2021/10/09 04:58:37;;;;;;;30.73;16.57;;;7.20;97.90;;;;;;5061302;28;20192;-77
2021/10/09 05:01:03;;;;;;;30.37;17.10;;;7.20;97.90;;;;;;5071083;28;20561;-75
2021/10/09 05:03:28;;;;;;;33.67;15.93;;;7.20;97.90;;;;;;5067700;28;20647;-76
2021/10/09 05:05:54;;;;;;;33.73;17.10;;;7.20;97.90;;;;;;5065600;28;20189;-77
2021/10/09 05:08:20;;;;;;;32.50;16.60;;;7.20;98.00;;;;;;5069648;28;20180;-77
2021/10/09 05:10:46;;;;;;;28.90;15.70;;;7.20;97.90;;;;;;5067860;28;20257;-76
2021/10/09 05:13:11;;;;;;;31.20;16.37;;;7.20;97.90;;;;;;5072530;28;20191;-75
2021/10/09 05:15:42;;;;;;;32.60;16.67;;;7.10;97.90;;;;;;5069587;28;20211;-75
2021/10/09 05:18:09;;;;;;;29.00;15.10;;;7.10;98.00;;;;;;5065731;28;20180;-76
2021/10/09 05:20:34;;;;;;;25.30;14.67;;;7.10;98.00;;;;;;5060729;28;20789;-76
2021/10/09 05:23:00;;;;;;;33.47;16.57;;;7.10;98.00;;;;;;5066453;28;20423;-74
2021/10/09 05:25:26;;;;;;;31.13;16.10;;;7.10;98.00;;;;;;5060777;28;20183;-76
2021/10/09 05:28:01;;;;;;;29.67;15.70;;;7.10;97.90;;;;;;5074843;28;20291;-75
2021/10/09 05:30:26;;;;;;;35.10;18.13;;;7.10;98.00;;;;;;5069222;28;20438;-76
2021/10/09 05:33:19;;;;;;;45.67;21.30;;;7.10;98.00;;;;;;5065845;28;20584;-76
2021/10/09 05:35:45;;;;;;;43.70;17.63;;;7.10;98.00;;;;;;5069398;28;20188;-76
2021/10/09 05:38:11;;;;;;;45.20;21.10;;;7.00;98.00;;;;;;5075377;28;20437;-76
2021/10/09 05:40:37;;;;;;;36.50;17.50;;;7.00;98.00;;;;;;5059212;28;20805;-74
2021/10/09 05:43:03;;;;;;;35.13;17.30;;;7.00;98.00;;;;;;5070498;28;20421;-75
2021/10/09 05:45:29;;;;;;;34.80;17.20;;;7.00;98.00;;;;;;5076311;28;20183;-75
2021/10/09 05:47:56;;;;;;;36.17;17.00;;;7.00;98.00;;;;;;5078691;28;20418;-76
2021/10/09 05:50:26;;;;;;;38.70;17.57;;;7.00;98.20;;;;;;5075383;28;20449;-76
2021/10/09 05:53:12;;;;;;;33.73;16.77;;;7.00;98.20;;;;;;5071007;28;20419;-75
2021/10/09 05:55:56;;;;;;;30.73;17.30;;;7.00;98.30;;;;;;5067485;28;20461;-75
2021/10/09 06:25:40;;;;;;;39.33;17.93;;;7.30;98.20;;;;;;5073794;28;20939;-75
2021/10/09 07:00:23;;;;;;;33.97;17.80;;;8.00;96.50;;;;;;5074237;28;20445;-76
2021/10/09 07:02:49;;;;;;;39.13;19.67;;;8.10;96.50;;;;;;5069763;28;20414;-76
2021/10/09 07:05:15;;;;;;;37.53;17.63;;;8.10;96.30;;;;;;5073559;28;20226;-76
2021/10/09 07:07:51;;;;;;;32.83;16.40;;;8.20;96.30;;;;;;5071725;28;20196;-75
2021/10/09 07:10:17;;;;;;;34.80;16.90;;;8.20;96.20;;;;;;5067447;28;20449;-76
2021/10/09 07:12:43;;;;;;;32.50;18.17;;;8.20;96.20;;;;;;5072959;28;20521;-77
2021/10/09 07:15:11;;;;;;;38.40;18.97;;;8.30;96.00;;;;;;5074943;28;20568;-77
2021/10/09 07:17:37;;;;;;;39.37;18.27;;;8.30;96.00;;;;;;5073749;28;20194;-77
2021/10/09 07:20:06;;;;;;;46.40;20.23;;;8.30;95.90;;;;;;5069030;28;21259;-76
2021/10/09 07:22:33;;;;;;;40.33;19.53;;;8.40;95.90;;;;;;5078302;28;20461;-76
2021/10/09 07:24:59;;;;;;;40.40;18.63;;;8.40;95.90;;;;;;5086056;28;20433;-76
2021/10/09 07:27:25;;;;;;;41.30;19.63;;;8.40;95.90;;;;;;5079636;28;20428;-77
2021/10/09 07:29:51;;;;;;;32.90;17.50;;;8.50;95.80;;;;;;5069561;28;20758;-77
2021/10/09 07:32:17;;;;;;;33.47;17.40;;;8.50;95.70;;;;;;5059446;28;20434;-77
2021/10/09 07:34:43;;;;;;;40.93;19.00;;;8.60;95.70;;;;;;5071945;28;20430;-77
2021/10/09 07:37:08;;;;;;;35.07;18.53;;;8.60;95.50;;;;;;5072877;28;20784;-76
2021/10/09 07:39:35;;;;;;;36.30;19.10;;;8.70;95.30;;;;;;5072381;28;20544;-78
2021/10/09 07:42:02;;;;;;;34.57;17.63;;;8.60;95.20;;;;;;5072504;28;20682;-75
2021/10/09 07:44:28;;;;;;;37.83;18.30;;;8.60;95.30;;;;;;5076522;28;20421;-75
2021/10/09 07:46:54;;;;;;;43.90;19.70;;;8.60;95.30;;;;;;5077820;28;20441;-77
2021/10/09 07:49:19;;;;;;;36.30;18.77;;;8.70;95.30;;;;;;5074490;28;20952;-77
2021/10/09 07:51:45;;;;;;;33.23;18.00;;;8.80;95.30;;;;;;5062537;28;20192;-77
2021/10/09 07:54:12;;;;;;;33.63;19.07;;;8.90;95.30;;;;;;5067281;28;20188;-76
2021/10/09 07:56:38;;;;;;;44.03;21.33;;;8.90;95.30;;;;;;5064202;28;20459;-76
2021/10/09 07:59:04;;;;;;;43.13;19.80;;;8.90;95.20;;;;;;5066383;28;20425;-74
2021/10/09 08:01:33;;;;;;;38.07;19.13;;;9.00;95.30;;;;;;5070897;28;20414;-76
2021/10/09 08:03:59;;;;;;;37.20;19.57;;;9.20;95.00;;;;;;5073389;28;20475;-77
2021/10/09 08:06:25;;;;;;;37.43;19.80;;;9.30;94.50;;;;;;5073525;28;20501;-75
2021/10/09 08:08:51;;;;;;;34.73;18.13;;;9.50;94.20;;;;;;5074166;28;20449;-75
2021/10/09 08:11:17;;;;;;;38.07;18.00;;;9.60;93.60;;;;;;5072592;28;20473;-76
2021/10/09 08:13:43;;;;;;;35.80;18.43;;;9.70;93.10;;;;;;5069406;28;20693;-75
2021/10/09 08:16:09;;;;;;;33.93;17.50;;;9.80;92.60;;;;;;5053428;28;20482;-76
2021/10/09 08:18:35;;;;;;;33.83;17.70;;;9.90;92.40;;;;;;5064576;28;20176;-78
2021/10/09 08:21:05;;;;;;;31.90;18.03;;;10.00;92.30;;;;;;5072750;28;20876;-76
2021/10/09 08:39:42;;;;;;;31.90;17.70;;;10.50;90.30;;;;;;5074076;28;20909;-77
2021/10/09 08:42:09;;;;;;;30.67;16.73;;;10.60;90.40;;;;;;5060833;28;20449;-76
2021/10/09 08:44:36;;;;;;;38.60;16.53;;;10.60;90.30;;;;;;5072954;28;20416;-74
2021/10/09 08:47:02;;;;;;;37.73;18.40;;;10.60;90.40;;;;;;5067150;28;20441;-75
2021/10/09 08:49:27;;;;;;;37.80;18.57;;;10.70;90.10;;;;;;5069824;28;20475;-77
2021/10/09 08:51:53;;;;;;;39.67;18.33;;;10.80;89.30;;;;;;5071333;28;20418;-75
2021/10/09 08:54:20;;;;;;;40.10;17.47;;;10.80;89.60;;;;;;5065908;28;20275;-76
2021/10/09 08:56:50;;;;;;;32.93;17.97;;;10.90;89.60;;;;;;5075429;28;20211;-75
2021/10/09 08:59:26;;;;;;;29.57;16.40;;;11.00;89.50;;;;;;5071947;28;20477;-75
2021/10/09 09:02:13;;;;;;;32.00;17.77;;;11.10;88.70;;;;;;5075270;28;21064;-75
2021/10/09 09:05:07;;;;;;;33.67;16.87;;;11.10;88.10;;;;;;5074874;28;20474;-74
2021/10/09 09:40:43;;;;;;;35.87;18.37;;;12.10;85.00;;;;;;5067399;28;21006;-76
2021/10/09 09:43:10;;;;;;;33.37;17.80;;;12.20;85.20;;;;;;5071873;28;20422;-74
2021/10/09 09:45:37;;;;;;;33.00;17.23;;;12.30;84.30;;;;;;5072693;28;20426;-75
2021/10/09 09:48:05;;;;;;;31.70;16.43;;;12.40;83.60;;;;;;5073715;28;20433;-74
2021/10/09 09:50:31;;;;;;;33.63;16.40;;;12.50;83.70;;;;;;5074376;28;20445;-75
2021/10/09 09:53:01;;;;;;;34.30;17.10;;;12.50;83.70;;;;;;5073967;28;20422;-74
2021/10/09 09:55:27;;;;;;;36.50;17.17;;;12.60;83.60;;;;;;5063266;28;21029;-75
2021/10/09 09:57:54;;;;;;;35.00;17.97;;;12.70;83.00;;;;;;5069202;28;20475;-74
2021/10/09 10:00:21;;;;;;;32.00;18.30;;;12.70;81.90;;;;;;5070779;28;20456;-74
2021/10/09 10:02:53;;;;;;;29.07;15.77;;;12.80;81.70;;;;;;5072695;28;20521;-75
2021/10/09 10:05:22;;;;;;;31.17;16.30;;;12.90;81.80;;;;;;5071657;28;20422;-75
2021/10/09 10:07:48;;;;;;;40.40;18.67;;;12.90;81.50;;;;;;5072967;28;20447;-73
2021/10/09 10:10:15;;;;;;;30.20;15.27;;;13.10;81.20;;;;;;5072596;28;20471;-74
2021/10/09 10:12:42;;;;;;;29.23;17.30;;;13.10;80.50;;;;;;5074002;28;20542;-74
2021/10/09 10:15:12;;;;;;;30.90;16.70;;;13.20;80.20;;;;;;5067736;28;20461;-74
2021/10/09 10:17:43;;;;;;;33.67;16.63;;;13.30;78.90;;;;;;5075457;28;20444;-73
2021/10/09 10:20:13;;;;;;;23.77;14.70;;;13.30;78.60;;;;;;5071894;28;20442;-73
2021/10/09 10:22:42;;;;;;;28.33;15.43;;;13.40;78.90;;;;;;5073815;28;20425;-74
2021/10/09 10:25:33;;;;;;;30.03;15.83;;;13.60;78.00;;;;;;5072505;28;20908;-75
2021/10/09 10:28:00;;;;;;;24.03;13.90;;;14.00;76.80;;;;;;5069760;28;20442;-74
2021/10/09 10:30:28;;;;;;;28.27;14.60;;;14.60;72.90;;;;;;5074370;28;20442;-75
2021/10/09 10:32:58;;;;;;;27.80;14.60;;;15.10;70.10;;;;;;5073111;28;20419;-75
2021/10/09 10:35:30;;;;;;;22.13;13.73;;;15.50;69.20;;;;;;5069825;28;20501;-77
2021/10/09 10:38:04;;;;;;;25.13;13.33;;;15.90;67.70;;;;;;5075573;28;20437;-77
2021/10/09 10:41:00;;;;;;;22.27;12.60;;;16.10;66.30;;;;;;5082195;28;20442;-74
2021/10/09 10:46:19;;;;;;;18.40;12.23;;;16.10;66.10;;;;;;5068388;28;20457;-74
2021/10/09 10:54:35;;;;;;;19.60;12.50;;;17.20;61.60;;;;;;5086439;28;20439;-75
2021/10/09 10:57:02;;;;;;;21.43;12.10;;;17.30;61.60;;;;;;5092526;28;20474;-75
2021/10/09 10:59:33;;;;;;;20.93;12.10;;;17.40;59.90;;;;;;5073765;28;20434;-74
2021/10/09 11:02:11;;;;;;;16.27;10.30;;;17.40;59.90;;;;;;5079720;28;20456;-74
2021/10/09 11:04:48;;;;;;;23.13;11.67;;;17.40;59.30;;;;;;5087713;28;20428;-74
2021/10/09 11:07:15;;;;;;;21.70;12.17;;;17.40;58.50;;;;;;5090562;28;20506;-74
2021/10/09 11:09:42;;;;;;;19.17;11.77;;;17.30;58.90;;;;;;5090799;28;20460;-77
2021/10/09 11:12:21;;;;;;;22.60;12.10;;;17.30;58.70;;;;;;5090542;28;20428;-75
2021/10/09 11:14:47;;;;;;;25.30;11.37;;;17.10;58.90;;;;;;5085033;28;20840;-75
2021/10/09 11:17:13;;;;;;;22.20;11.47;;;17.00;59.30;;;;;;5090397;28;20423;-75
2021/10/09 11:19:43;;;;;;;19.80;10.80;;;17.00;59.10;;;;;;5090289;28;20512;-75
2021/10/09 11:22:10;;;;;;;16.03;10.60;;;17.10;59.30;;;;;;5090293;28;20447;-74
2021/10/09 11:24:40;;;;;;;19.67;11.03;;;17.20;59.20;;;;;;5089749;28;20433;-75
2021/10/09 11:27:05;;;;;;;19.70;10.67;;;17.50;59.20;;;;;;5090600;28;20428;-75
2021/10/09 11:29:31;;;;;;;24.43;12.60;;;17.90;58.70;;;;;;5086402;28;20450;-74
2021/10/09 11:32:10;;;;;;;21.10;10.93;;;18.40;56.80;;;;;;5067201;28;20207;-75
2021/10/09 11:34:52;;;;;;;17.93;10.93;;;18.80;55.60;;;;;;5071947;28;20207;-75
2021/10/09 11:37:19;;;;;;;16.90;11.30;;;18.60;54.10;;;;;;5066323;28;20428;-75
2021/10/09 11:39:51;;;;;;;16.67;9.77;;;18.50;55.30;;;;;;5069219;28;21031;-75
2021/10/09 11:42:24;;;;;;;18.97;11.90;;;18.60;54.80;;;;;;5071233;28;20756;-75
2021/10/09 11:45:21;;;;;;;19.67;10.93;;;18.20;54.80;;;;;;5070782;28;20430;-74
2021/10/09 11:53:47;;;;;;;23.10;12.53;;;18.20;56.60;;;;;;5070513;28;20504;-74
2021/10/09 11:56:14;;;;;;;18.37;11.90;;;18.60;55.40;;;;;;5068583;28;20507;-75
2021/10/09 11:58:59;;;;;;;23.40;11.37;;;18.80;55.30;;;;;;5065832;28;20951;-74
2021/10/09 12:01:36;;;;;;;21.07;12.20;;;19.00;54.10;;;;;;5070293;28;20419;-75
2021/10/09 12:04:23;;;;;;;16.27;10.37;;;19.10;55.00;;;;;;5070988;28;20422;-74
2021/10/09 12:07:05;;;;;;;18.60;10.70;;;19.20;53.20;;;;;;5065692;28;20972;-75
2021/10/09 12:09:44;;;;;;;20.80;12.47;;;19.30;53.80;;;;;;5069021;28;20442;-75
2021/10/09 12:12:33;;;;;;;18.20;11.20;;;19.20;53.30;;;;;;5061392;28;20925;-74
2021/10/09 12:14:59;;;;;;;20.90;11.27;;;18.90;53.70;;;;;;5059382;28;20795;-75
2021/10/09 12:17:38;;;;;;;15.97;10.93;;;18.70;54.50;;;;;;5067238;28;20444;-74
2021/10/09 12:20:07;;;;;;;19.93;10.90;;;18.30;54.90;;;;;;5071782;28;20971;-76
2021/10/09 12:22:44;;;;;;;23.93;12.00;;;18.20;55.80;;;;;;5066008;28;20420;-75
2021/10/09 12:25:22;;;;;;;19.47;10.90;;;18.50;55.70;;;;;;5074230;28;20955;-72
2021/10/09 12:27:59;;;;;;;19.70;12.80;;;18.90;54.60;;;;;;5073031;28;20431;-73
2021/10/09 12:30:48;;;;;;;16.70;10.53;;;19.10;53.40;;;;;;5074180;28;20441;-75
2021/10/09 12:33:38;;;;;;;20.47;10.80;;;19.20;53.20;;;;;;5078051;28;20510;-74
2021/10/09 12:39:17;;;;;;;18.30;11.40;;;19.60;53.20;;;;;;5069383;28;20804;-74
2021/10/09 12:41:43;;;;;;;19.43;10.77;;;19.60;52.20;;;;;;5071876;28;20786;-74
2021/10/09 12:44:09;;;;;;;19.40;10.70;;;19.30;53.70;;;;;;5072514;28;20422;-75
2021/10/09 12:46:34;;;;;;;19.10;10.50;;;19.40;53.00;;;;;;5062283;28;20186;-75
2021/10/09 12:49:00;;;;;;;19.93;12.10;;;19.30;53.00;;;;;;5070132;28;20250;-73
2021/10/09 12:51:26;;;;;;;20.53;11.60;;;19.20;53.00;;;;;;5074201;28;20180;-75
2021/10/09 12:53:55;;;;;;;18.67;10.80;;;18.90;54.00;;;;;;5068956;28;20553;-74
2021/10/09 12:56:21;;;;;;;19.70;11.20;;;19.00;54.10;;;;;;5071955;28;20217;-76
2021/10/09 12:58:46;;;;;;;16.30;10.47;;;19.40;53.40;;;;;;5070856;28;21009;-76
2021/10/09 13:01:13;;;;;;;16.40;10.47;;;19.40;52.40;;;;;;5073985;28;20208;-75
2021/10/09 13:03:38;;;;;;;20.27;11.90;;;19.60;52.80;;;;;;5074455;28;20570;-76
2021/10/09 13:06:04;;;;;;;17.03;10.90;;;19.80;52.10;;;;;;5073229;28;20449;-76
2021/10/09 13:08:30;;;;;;;17.90;10.30;;;19.90;51.30;;;;;;5074052;28;20646;-76
2021/10/09 13:10:59;;;;;;;19.97;11.20;;;19.60;51.60;;;;;;5073298;28;20667;-76
2021/10/09 13:13:24;;;;;;;21.20;10.90;;;19.30;53.20;;;;;;5071974;28;20545;-74
2021/10/09 13:15:50;;;;;;;19.60;10.20;;;19.20;53.70;;;;;;5070724;28;20476;-75
2021/10/09 13:18:16;;;;;;;20.47;10.33;;;19.40;53.20;;;;;;5073472;28;20211;-76
2021/10/09 13:20:42;;;;;;;16.27;11.00;;;19.50;52.90;;;;;;5073760;28;20204;-76
2021/10/09 13:23:07;;;;;;;18.00;11.13;;;19.50;52.60;;;;;;5069690;28;20187;-75
2021/10/09 13:25:33;;;;;;;20.50;10.50;;;19.30;52.60;;;;;;5069577;28;20257;-75
2021/10/09 13:27:59;;;;;;;18.07;10.37;;;19.30;53.70;;;;;;5074070;28;20193;-75
2021/10/09 13:30:26;;;;;;;18.17;10.40;;;19.70;52.90;;;;;;5067692;28;20204;-75
2021/10/09 13:32:52;;;;;;;15.33;9.67;;;20.10;51.80;;;;;;5075401;28;20485;-76
2021/10/09 13:35:18;;;;;;;16.30;10.10;;;20.30;50.70;;;;;;5074684;28;20469;-76
2021/10/09 13:37:52;;;;;;;14.80;9.43;;;20.50;50.50;;;;;;5074251;28;20430;-76
2021/10/09 13:40:19;;;;;;;23.10;10.57;;;20.80;49.70;;;;;;5074529;28;20437;-75
2021/10/09 13:42:44;;;;;;;17.83;10.40;;;20.90;48.70;;;;;;5074917;28;20427;-75
2021/10/09 13:45:10;;;;;;;17.20;10.40;;;20.50;49.00;;;;;;5057157;28;20432;-75
2021/10/09 13:47:36;;;;;;;15.80;10.50;;;20.30;50.10;;;;;;5071235;28;20190;-76
2021/10/09 13:50:03;;;;;;;15.63;9.90;;;20.40;50.10;;;;;;5070751;28;20235;-76
2021/10/09 13:52:28;;;;;;;17.80;10.53;;;20.60;49.70;;;;;;5075072;28;20185;-75
2021/10/09 13:54:54;;;;;;;19.73;11.73;;;20.80;49.00;;;;;;5079401;28;20492;-75
2021/10/09 13:57:20;;;;;;;15.23;9.70;;;20.80;48.30;;;;;;5070573;28;20276;-75
2021/10/09 13:59:45;;;;;;;15.03;9.60;;;20.50;49.10;;;;;;5069629;28;20204;-76
2021/10/09 14:02:11;;;;;;;17.53;11.07;;;20.30;50.10;;;;;;5071224;28;20187;-75
2021/10/09 14:04:39;;;;;;;24.27;10.70;;;20.20;50.50;;;;;;5069072;28;20196;-76
2021/10/09 14:07:06;;;;;;;20.33;10.77;;;19.90;51.00;;;;;;5071105;28;20184;-75
2021/10/09 14:09:32;;;;;;;21.63;10.53;;;19.60;52.10;;;;;;5066817;28;20987;-75
2021/10/09 14:11:58;;;;;;;19.73;11.00;;;19.50;51.80;;;;;;5062497;28;21272;-76
2021/10/09 14:14:25;;;;;;;17.57;10.67;;;19.30;52.20;;;;;;5064296;28;20425;-76
2021/10/09 14:16:55;;;;;;;18.10;10.57;;;19.10;52.40;;;;;;5072118;28;20465;-77
2021/10/09 14:19:21;;;;;;;15.77;9.83;;;18.80;53.60;;;;;;5069299;28;20826;-75
2021/10/09 14:21:47;;;;;;;15.87;9.90;;;18.80;54.10;;;;;;5071065;28;20427;-76
2021/10/09 14:24:18;;;;;;;13.03;8.97;;;18.70;53.70;;;;;;5067582;28;20516;-75
2021/10/09 14:26:44;;;;;;;16.83;9.47;;;18.60;54.10;;;;;;5067865;28;20431;-75
2021/10/09 14:29:10;;;;;;;16.37;9.93;;;18.60;54.40;;;;;;5072041;28;20433;-76
2021/10/09 14:31:36;;;;;;;19.30;10.50;;;18.70;54.40;;;;;;5070204;28;20791;-75
2021/10/09 14:34:03;;;;;;;18.80;10.87;;;18.70;54.40;;;;;;5069696;28;20184;-76
2021/10/09 14:36:29;;;;;;;16.17;10.00;;;18.60;54.60;;;;;;5070231;28;20465;-76
2021/10/09 14:38:55;;;;;;;15.53;10.00;;;18.30;54.90;;;;;;5069997;28;20809;-75
2021/10/09 14:41:22;;;;;;;21.27;11.37;;;18.00;55.80;;;;;;5068809;28;20203;-74
2021/10/09 14:43:48;;;;;;;15.37;10.07;;;17.80;56.50;;;;;;5068436;28;20509;-74
2021/10/09 14:47:02;;;;;;;17.40;9.97;;;17.70;56.90;;;;;;5068283;28;20513;-75
2021/10/09 14:49:24;;;;;;;17.30;10.33;;;17.70;57.20;;;;;;5068595;28;20246;-75
2021/10/09 14:51:56;;;;;;;16.87;10.47;;;17.70;56.80;;;;;;5067750;28;20889;-75
2021/10/09 14:55:03;;;;;;;20.77;10.30;;;17.70;57.20;;;;;;5066929;28;20422;-74
2021/10/09 15:17:04;;;;;;;16.67;9.97;;;19.10;53.40;;;;;;5068707;28;20933;-74
2021/10/09 15:19:30;;;;;;;16.13;10.60;;;19.20;52.10;;;;;;5060721;28;20451;-74
2021/10/09 15:21:55;;;;;;;12.87;8.97;;;18.90;52.40;;;;;;5067855;28;20510;-75
2021/10/09 15:24:21;;;;;;;14.67;8.90;;;18.80;52.90;;;;;;5065714;28;20188;-76